Terminal Aerodrome Forecast
Issued by NWS Cleveland, OH

Home | Current Version | Previous Version | Text Only | Print | Product List | Glossary Off
Versions: 1 2 3 4 5 6 7 8 9 10 11 12 13 14 15 16 17 18 19

843
FTUS41 KCLE 221746
TAFMFD
TAF
KMFD 221746Z 2218/2318 21009KT P6SM VCSH SCT015 BKN035
      TEMPO 2219/2222 5SM -SHRA BKN025
     FM222200 24010KT P6SM SCT030 BKN060
     FM230300 24004KT 6SM BR BKN018
     FM230700 VRB04KT 4SM BR OVC008
     FM231400 25004KT 6SM BR SCT007 OVC012=

USA.gov is the U.S. government's official web portal to all federal, state and local government web resources and services.